KCOU/COU METAR and TAF weather

Enter ICAO airport designator
Station Type Date Time Source
KCOU METAR 2020/11/28 19:54 UTC NOAA

KCOU 281954Z 23008KT 10SM CLR 13/M03 A3017 RMK AO2 SLP219 T01281028


Station Type Date Time Source
KCOU Decoded METAR 2020/11/28 19:54 UTC NOAA

COLUMBIA REGIONAL AIRPORT, MO, United States (KCOU) 38-49N 092-13W 271M
Nov 28, 2020 - 02:54 PM EST / 2020.11.28 1954 UTC
Wind: from the SW (230 degrees) at 9 MPH (8 KT):0
Visibility: 10 mile(s):0
Sky conditions: clear
Temperature: 55.0 F (12.8 C)
Dew Point: 27.0 F (-2.8 C)
Relative Humidity: 33%
Pressure (altimeter): 30.17 in. Hg (1021 hPa)
ob: KCOU 281954Z 23008KT 10SM CLR 13/M03 A3017 RMK AO2 SLP219 T01281028
cycle: 20

Station Type Date Time Source
KCOU TAF 2020/11/28 18:22 UTC NOAA

TAF KCOU 281720Z 2818/2918 25008KT P6SM FEW250
FM290600 19005KT P6SM BKN100

Example: see airport list